createdAt,value
2023-05-02T00:00:13.854Z,8.00
2023-05-02T00:03:17.838Z,7.00
2023-05-02T00:06:21.471Z,6.25
2023-05-02T00:09:24.925Z,9.00
2023-05-02T00:12:28.385Z,9.50
2023-05-02T00:15:33.126Z,6.75
2023-05-02T00:18:36.540Z,7.50
2023-05-02T00:21:39.915Z,6.50
2023-05-02T00:24:43.501Z,7.00
2023-05-02T00:27:46.984Z,8.50
2023-05-02T00:30:52.273Z,7.00
2023-05-02T00:33:55.796Z,7.00
2023-05-02T00:36:59.453Z,7.00
2023-05-02T00:40:03.213Z,6.75
2023-05-02T00:43:07.780Z,6.75
2023-05-02T00:46:13.604Z,10.50
2023-05-02T00:49:17.058Z,8.00
2023-05-02T00:52:21.004Z,8.50
2023-05-02T00:55:24.538Z,9.75
2023-05-02T00:58:29.710Z,7.00
2023-05-02T01:01:48.833Z,12.00
2023-05-02T01:05:01.524Z,9.00
2023-05-02T01:08:12.758Z,7.50
2023-05-02T01:11:20.173Z,7.50
2023-05-02T01:14:25.712Z,9.75
2023-05-02T01:17:34.281Z,10.50
2023-05-02T01:20:41.997Z,10.00
2023-05-02T01:23:54.174Z,10.00
2023-05-02T01:27:09.121Z,9.75
2023-05-02T01:30:19.537Z,8.50
2023-05-02T01:33:25.519Z,10.25
2023-05-02T01:36:32.753Z,9.00
2023-05-02T01:39:39.188Z,9.00
2023-05-02T01:42:44.928Z,9.25
2023-05-02T01:45:53.323Z,9.25
2023-05-02T01:49:00.523Z,8.00
2023-05-02T01:52:06.566Z,9.25
2023-05-02T01:55:15.077Z,7.50
2023-05-02T01:58:20.772Z,11.50
2023-05-02T02:01:29.088Z,9.00
2023-05-02T02:04:35.349Z,12.50
2023-05-02T02:07:39.253Z,12.50
2023-05-02T02:10:51.194Z,9.25
2023-05-02T02:14:02.031Z,10.00
2023-05-02T02:17:16.498Z,6.00
2023-05-02T02:20:20.587Z,9.25
2023-05-02T02:23:28.618Z,10.75
2023-05-02T02:26:32.340Z,9.00
2023-05-02T02:29:36.235Z,7.00
2023-05-02T02:32:41.243Z,7.50
2023-05-02T02:35:49.647Z,9.75
2023-05-02T02:39:05.217Z,6.75
2023-05-02T02:42:15.249Z,9.00
2023-05-02T02:45:31.721Z,9.00
2023-05-02T02:48:44.839Z,9.75
2023-05-02T02:51:55.223Z,10.00
2023-05-02T02:55:06.438Z,9.00
2023-05-02T02:58:21.797Z,3.25
2023-05-02T03:01:28.362Z,9.00
2023-05-02T03:04:40.621Z,10.25
2023-05-02T03:07:44.151Z,9.00
2023-05-02T03:10:47.799Z,9.75
2023-05-02T03:13:52.921Z,12.00
2023-05-02T03:16:58.988Z,9.50
2023-05-02T03:20:04.852Z,8.00
2023-05-02T03:23:08.301Z,10.50
2023-05-02T03:26:12.622Z,11.50
2023-05-02T03:29:17.712Z,11.50
2023-05-02T03:32:21.229Z,9.00
2023-05-02T03:35:26.112Z,7.00
2023-05-02T03:38:31.128Z,9.00
2023-05-02T03:41:39.133Z,9.00
2023-05-02T03:44:46.230Z,9.25
2023-05-02T03:47:49.687Z,9.25
2023-05-02T03:50:54.632Z,6.50
2023-05-02T03:53:58.547Z,9.50
2023-05-02T03:57:04.903Z,9.25
2023-05-02T04:00:10.627Z,7.50
2023-05-02T04:03:22.058Z,9.00
2023-05-02T04:06:27.350Z,8.50
2023-05-02T04:09:36.691Z,9.00
2023-05-02T04:12:45.681Z,10.00
2023-05-02T04:15:49.378Z,9.25
2023-05-02T04:18:56.857Z,9.25
2023-05-02T04:22:03.628Z,9.00
2023-05-02T04:25:10.899Z,9.50
2023-05-02T04:28:16.823Z,9.25
2023-05-02T04:31:20.743Z,3.75
2023-05-02T04:34:24.781Z,9.50
2023-05-02T04:37:29.726Z,9.00
2023-05-02T04:40:34.501Z,11.50
2023-05-02T04:43:41.811Z,9.75
2023-05-02T04:46:46.503Z,6.75
2023-05-02T04:49:50.012Z,9.75
2023-05-02T04:52:55.054Z,9.00
2023-05-02T04:55:59.125Z,12.00
2023-05-02T04:59:02.720Z,10.00
2023-05-02T05:02:08.433Z,7.00
2023-05-02T05:05:12.706Z,8.00
2023-05-02T05:08:17.877Z,12.00
2023-05-02T05:11:21.585Z,8.50
2023-05-02T05:14:25.047Z,9.75
2023-05-02T05:17:30.993Z,7.50
2023-05-02T05:20:35.320Z,9.25
2023-05-02T05:23:46.249Z,7.00
2023-05-02T05:26:54.257Z,6.50
2023-05-02T05:29:58.663Z,6.75
2023-05-02T05:33:02.783Z,15.50
2023-05-02T05:36:07.662Z,9.50
2023-05-02T05:39:13.702Z,9.50
2023-05-02T05:42:19.599Z,6.50
2023-05-02T05:45:27.326Z,6.00
2023-05-02T05:48:31.160Z,7.75
2023-05-02T05:51:37.153Z,12.25
2023-05-02T05:54:42.381Z,6.33
2023-05-02T05:57:46.172Z,7.75
2023-05-02T06:00:50.750Z,5.50
2023-05-02T06:03:54.355Z,10.00
2023-05-02T06:06:58.120Z,9.25
2023-05-02T06:10:03.269Z,4.00
2023-05-02T06:13:08.849Z,7.00
2023-05-02T06:16:16.507Z,7.25
2023-05-02T06:19:20.075Z,7.00
2023-05-02T06:22:23.514Z,9.33
2023-05-02T06:25:29.109Z,6.33
2023-05-02T06:28:33.016Z,6.67
2023-05-02T06:31:36.600Z,8.33
2023-05-02T06:34:39.965Z,9.00
2023-05-02T06:37:43.670Z,6.67
2023-05-02T06:40:48.597Z,6.33
2023-05-02T06:43:51.942Z,9.00
2023-05-02T06:46:55.940Z,7.00
2023-05-02T06:49:59.869Z,10.00
2023-05-02T06:53:03.906Z,7.00
2023-05-02T06:56:12.363Z,6.00
2023-05-02T06:59:20.749Z,10.00
2023-05-02T07:02:24.110Z,7.00
2023-05-02T07:05:27.587Z,12.33
2023-05-02T07:08:31.015Z,4.00
2023-05-02T07:11:36.369Z,9.00
2023-05-02T07:14:39.854Z,9.00
2023-05-02T07:17:43.393Z,8.33
2023-05-02T07:20:46.981Z,3.00
2023-05-02T07:23:50.850Z,9.00
2023-05-02T07:26:55.871Z,7.00
2023-05-02T07:29:59.441Z,7.00
2023-05-02T07:33:02.944Z,7.67
2023-05-02T07:36:06.812Z,8.33
2023-05-02T07:39:10.721Z,6.00
2023-05-02T07:42:15.606Z,7.67
2023-05-02T07:45:19.245Z,4.00
2023-05-02T07:48:22.739Z,5.00
2023-05-02T07:51:26.444Z,7.00
2023-05-02T07:54:30.058Z,6.00
2023-05-02T07:57:34.843Z,7.00
2023-05-02T08:00:38.260Z,6.33
2023-05-02T08:03:41.937Z,4.00
2023-05-02T08:06:46.704Z,4.00
2023-05-02T08:09:50.798Z,3.33
2023-05-02T08:12:55.556Z,0.00
2023-05-02T08:15:59.198Z,4.00
2023-05-02T08:19:02.580Z,2.33
2023-05-02T08:22:06.201Z,5.33
2023-05-02T08:25:10.680Z,2.33
2023-05-02T08:28:15.753Z,4.00
2023-05-02T08:31:19.638Z,4.67
2023-05-02T08:34:23.293Z,1.33
2023-05-02T08:37:27.383Z,4.00
2023-05-02T08:40:42.015Z,3.67
2023-05-02T08:43:48.915Z,4.00
2023-05-02T08:46:53.290Z,5.33
2023-05-02T08:49:58.161Z,6.00
2023-05-02T08:53:02.114Z,7.00
2023-05-02T08:56:07.651Z,4.00
2023-05-02T08:59:12.445Z,7.00
2023-05-02T09:02:27.833Z,6.33
2023-05-02T09:05:40.032Z,6.33
2023-05-02T09:08:44.893Z,1.33
2023-05-02T09:11:48.628Z,4.00
2023-05-02T09:15:10.729Z,8.00
2023-05-02T09:18:21.972Z,6.33
2023-05-02T09:21:27.014Z,6.00
2023-05-02T09:24:31.088Z,5.33
2023-05-02T09:27:53.632Z,5.00
2023-05-02T09:31:08.613Z,6.00
2023-05-02T09:34:13.708Z,7.00
2023-05-02T09:37:35.704Z,5.00
2023-05-02T09:40:39.376Z,7.00
2023-05-02T09:43:43.631Z,8.67
2023-05-02T09:46:51.317Z,8.67
2023-05-02T09:49:54.925Z,7.00
2023-05-02T09:53:06.446Z,8.00
2023-05-02T09:56:09.946Z,11.67
2023-05-02T09:59:15.013Z,9.67
2023-05-02T10:02:22.109Z,8.00
2023-05-02T10:05:26.218Z,6.67
2023-05-02T10:08:30.201Z,9.33
2023-05-02T10:11:34.776Z,7.33
2023-05-02T10:14:42.580Z,4.00
2023-05-02T10:17:50.816Z,7.67
2023-05-02T10:20:59.792Z,7.67
2023-05-02T10:24:04.106Z,6.67
2023-05-02T10:27:07.886Z,6.33
2023-05-02T10:30:14.272Z,5.33
2023-05-02T10:33:20.266Z,4.00
2023-05-02T10:36:24.548Z,5.33
2023-05-02T10:39:29.287Z,6.33
2023-05-02T10:42:36.654Z,4.67
2023-05-02T10:45:40.075Z,5.67
2023-05-02T10:49:01.950Z,4.67
2023-05-02T10:52:27.237Z,5.67
2023-05-02T10:55:31.214Z,7.00
2023-05-02T10:58:34.848Z,6.33
2023-05-02T11:01:42.993Z,6.00
2023-05-02T11:05:05.735Z,6.33
2023-05-02T11:08:33.283Z,5.67
2023-05-02T11:11:43.963Z,2.67
2023-05-02T11:14:51.379Z,6.67
2023-05-02T11:18:02.449Z,6.67
2023-05-02T11:21:29.892Z,7.00
2023-05-02T11:24:40.850Z,21.67
2023-05-02T11:27:46.460Z,10.00
2023-05-02T11:30:51.260Z,10.00
2023-05-02T11:33:58.235Z,8.33
2023-05-02T11:37:12.918Z,6.67
2023-05-02T11:40:20.072Z,8.00
2023-05-02T11:43:25.284Z,8.33
2023-05-02T11:46:28.836Z,7.33
2023-05-02T11:49:33.313Z,7.00
2023-05-02T11:52:41.149Z,6.33
2023-05-02T11:55:49.127Z,5.67
2023-05-02T11:59:00.272Z,5.67
2023-05-02T12:02:03.902Z,7.00
2023-05-02T12:05:08.686Z,7.00
2023-05-02T12:08:24.702Z,7.67
2023-05-02T12:11:28.700Z,6.33
2023-05-02T12:14:33.686Z,7.00
2023-05-02T12:17:40.482Z,6.00
2023-05-02T12:20:45.244Z,5.33
2023-05-02T12:23:50.969Z,4.00
2023-05-02T12:27:10.529Z,2.67
2023-05-02T12:30:27.411Z,5.67
2023-05-02T12:33:31.262Z,8.00
2023-05-02T12:36:35.407Z,7.00
2023-05-02T12:39:42.293Z,7.00
2023-05-02T12:43:00.168Z,5.00
2023-05-02T12:46:13.386Z,7.00
2023-05-02T12:49:18.180Z,7.33
2023-05-02T12:52:22.492Z,7.00
2023-05-02T12:55:28.536Z,8.00
2023-05-02T12:58:31.925Z,5.00
2023-05-02T13:01:35.900Z,4.67
2023-05-02T13:04:41.439Z,7.00
2023-05-02T13:07:45.288Z,8.00
2023-05-02T13:10:51.589Z,7.00
2023-05-02T13:13:55.226Z,8.00
2023-05-02T13:16:59.440Z,4.00
2023-05-02T13:20:03.833Z,6.33
2023-05-02T13:23:08.120Z,5.00
2023-05-02T13:26:13.027Z,10.67
2023-05-02T13:29:16.397Z,8.67
2023-05-02T13:32:20.068Z,6.33
2023-05-02T13:35:23.550Z,7.33
2023-05-02T13:38:27.097Z,7.67
2023-05-02T13:41:31.974Z,7.00
2023-05-02T13:44:36.581Z,4.67
2023-05-02T13:47:41.853Z,5.00
2023-05-02T13:50:45.377Z,8.00
2023-05-02T13:53:48.803Z,8.00
2023-05-02T13:56:54.134Z,8.00
2023-05-02T13:59:57.702Z,7.33
2023-05-02T14:03:01.308Z,7.00
2023-05-02T14:06:05.181Z,9.67
2023-05-02T14:09:08.818Z,9.00
2023-05-02T14:12:14.351Z,8.00
2023-05-02T14:15:18.081Z,7.00
2023-05-02T14:18:21.683Z,7.00
2023-05-02T14:21:25.523Z,8.00
2023-05-02T14:24:30.872Z,8.00
2023-05-02T14:27:36.528Z,7.33
2023-05-02T14:30:39.892Z,8.00
2023-05-02T14:33:43.546Z,6.00
2023-05-02T14:36:47.085Z,8.33
2023-05-02T14:39:54.904Z,6.00
2023-05-02T14:43:03.619Z,8.00
2023-05-02T14:46:07.308Z,8.00
2023-05-02T14:49:13.044Z,8.00
2023-05-02T14:52:16.441Z,7.33
2023-05-02T14:55:20.018Z,8.00
2023-05-02T14:58:27.272Z,11.33
2023-05-02T15:01:31.394Z,11.00
2023-05-02T15:04:35.038Z,8.33
2023-05-02T15:07:38.419Z,0.00
2023-05-02T15:10:43.685Z,13.00
2023-05-02T15:13:49.142Z,9.67
2023-05-02T15:16:52.568Z,12.00
2023-05-02T15:19:58.247Z,8.00
2023-05-02T15:23:03.744Z,8.00
2023-05-02T15:26:07.613Z,10.33
2023-05-02T15:29:12.531Z,11.00
2023-05-02T15:32:15.962Z,6.67
2023-05-02T15:35:19.494Z,9.33
2023-05-02T15:38:23.138Z,8.00
2023-05-02T15:41:27.349Z,11.33
2023-05-02T15:44:32.243Z,8.33
2023-05-02T15:47:35.656Z,13.67
2023-05-02T15:50:39.371Z,17.67
2023-05-02T15:53:44.417Z,15.67
2023-05-02T15:56:47.953Z,25.33
2023-05-02T15:59:52.870Z,15.33
2023-05-02T16:02:56.806Z,16.33
2023-05-02T16:06:00.633Z,18.00
2023-05-02T16:09:06.467Z,19.00
2023-05-02T16:12:10.449Z,15.67
2023-05-02T16:15:15.210Z,17.33
2023-05-02T16:18:18.553Z,20.00
2023-05-02T16:21:22.077Z,17.00
2023-05-02T16:24:25.520Z,17.67
2023-05-02T16:27:28.962Z,23.67
2023-05-02T16:30:37.724Z,20.33
2023-05-02T16:33:42.947Z,18.00
2023-05-02T16:36:49.914Z,21.00
2023-05-02T16:39:53.481Z,27.00
2023-05-02T16:43:00.333Z,36.33
2023-05-02T16:46:06.560Z,21.00
2023-05-02T16:49:10.012Z,23.00
2023-05-02T16:52:13.342Z,21.33
2023-05-02T16:55:17.030Z,21.00
2023-05-02T16:58:20.418Z,19.67
2023-05-02T17:01:25.457Z,25.67
2023-05-02T17:04:29.894Z,21.00
2023-05-02T17:07:33.440Z,21.33
2023-05-02T17:10:36.803Z,24.33
2023-05-02T17:13:40.290Z,22.33
2023-05-02T17:16:45.350Z,21.00
2023-05-02T17:19:48.740Z,18.67
2023-05-02T17:22:52.741Z,20.67
2023-05-02T17:25:56.548Z,24.00
2023-05-02T17:28:59.960Z,22.67
2023-05-02T17:32:04.943Z,24.33
2023-05-02T17:35:08.988Z,22.33
2023-05-02T17:38:12.364Z,21.67
2023-05-02T17:41:16.415Z,19.33
2023-05-02T17:44:19.755Z,16.67
2023-05-02T17:47:25.928Z,21.67
2023-05-02T17:50:29.362Z,21.67
2023-05-02T17:53:32.764Z,26.00
2023-05-02T17:56:37.581Z,16.33
2023-05-02T17:59:41.458Z,19.75
2023-05-02T18:02:46.332Z,28.67
2023-05-02T18:05:50.124Z,20.67
2023-05-02T18:08:53.753Z,22.67
2023-05-02T18:11:58.668Z,22.33
2023-05-02T18:15:05.409Z,24.33
2023-05-02T18:18:16.098Z,20.00
2023-05-02T18:21:23.662Z,27.67
2023-05-02T18:24:27.255Z,23.00
2023-05-02T18:27:31.335Z,24.67
2023-05-02T18:30:37.785Z,25.00
2023-05-02T18:33:47.065Z,26.50
2023-05-02T18:36:54.592Z,29.75
2023-05-02T18:39:58.052Z,26.25
2023-05-02T18:43:01.538Z,29.00
2023-05-02T18:46:04.985Z,29.75
2023-05-02T18:49:10.458Z,24.25
2023-05-02T18:52:13.973Z,25.25
2023-05-02T18:55:18.035Z,19.75
2023-05-02T18:58:22.914Z,27.25
2023-05-02T19:01:26.387Z,53.00
2023-05-02T19:04:33.120Z,51.50
2023-05-02T19:07:38.423Z,38.25
2023-05-02T19:10:46.240Z,30.50
2023-05-02T19:13:49.846Z,60.50
2023-05-02T19:16:53.326Z,33.00
2023-05-02T19:19:58.479Z,50.75
2023-05-02T19:23:18.381Z,32.50
2023-05-02T19:26:22.439Z,28.50
2023-05-02T19:29:25.920Z,28.00
2023-05-02T19:32:29.345Z,28.00
2023-05-02T19:35:35.576Z,24.50
2023-05-02T19:38:46.243Z,23.25
2023-05-02T19:41:50.129Z,26.00
2023-05-02T19:44:54.500Z,28.25
2023-05-02T19:47:58.574Z,28.00
2023-05-02T19:51:06.027Z,25.67
2023-05-02T19:54:09.478Z,22.00
2023-05-02T19:57:15.101Z,27.75
2023-05-02T20:00:18.896Z,26.00
2023-05-02T20:03:23.495Z,16.50
2023-05-02T20:06:28.605Z,25.00
2023-05-02T20:09:32.053Z,22.50
2023-05-02T20:12:35.686Z,23.00
2023-05-02T20:15:39.812Z,53.00
2023-05-02T20:18:43.160Z,39.75
2023-05-02T20:21:48.090Z,33.00
2023-05-02T20:24:51.574Z,26.00
2023-05-02T20:27:54.940Z,29.50
2023-05-02T20:30:58.324Z,21.50
2023-05-02T20:34:01.926Z,29.50
2023-05-02T20:37:07.853Z,26.50
2023-05-02T20:40:12.096Z,26.00
2023-05-02T20:43:18.983Z,33.00
2023-05-02T20:46:25.605Z,47.00
2023-05-02T20:49:32.126Z,39.25
2023-05-02T20:52:37.726Z,53.00
2023-05-02T20:55:44.236Z,32.25
2023-05-02T20:58:51.625Z,26.75
2023-05-02T21:01:57.031Z,25.50
2023-05-02T21:05:00.833Z,29.50
2023-05-02T21:08:06.169Z,27.25
2023-05-02T21:11:14.729Z,13.50
2023-05-02T21:14:20.928Z,31.00
2023-05-02T21:17:26.478Z,24.00
2023-05-02T21:20:30.916Z,26.25
2023-05-02T21:23:35.988Z,23.25
2023-05-02T21:26:40.907Z,26.50
2023-05-02T21:29:44.258Z,19.75
2023-05-02T21:32:50.374Z,26.00
2023-05-02T21:35:58.071Z,19.75
2023-05-02T21:39:02.803Z,16.00
2023-05-02T21:42:06.286Z,22.00
2023-05-02T21:45:11.463Z,18.25
2023-05-02T21:48:15.255Z,17.00
2023-05-02T21:51:18.790Z,13.00
2023-05-02T21:54:23.648Z,20.50
2023-05-02T21:57:27.119Z,16.75
2023-05-02T22:00:32.166Z,15.50
2023-05-02T22:03:36.744Z,15.25
2023-05-02T22:06:40.316Z,17.00
2023-05-02T22:09:46.251Z,15.25
2023-05-02T22:12:49.694Z,18.00
2023-05-02T22:15:53.104Z,16.50
2023-05-02T22:18:58.085Z,19.25
2023-05-02T22:22:02.545Z,16.25
2023-05-02T22:25:08.594Z,14.50
2023-05-02T22:28:12.339Z,15.25
2023-05-02T22:31:16.938Z,16.50
2023-05-02T22:34:20.733Z,16.00
2023-05-02T22:37:24.325Z,14.00
2023-05-02T22:40:31.050Z,15.50
2023-05-02T22:43:38.974Z,12.75
2023-05-02T22:46:42.910Z,17.50
2023-05-02T22:49:46.935Z,20.00
2023-05-02T22:52:51.233Z,14.00
2023-05-02T22:55:56.260Z,21.25
2023-05-02T22:58:59.680Z,21.00
2023-05-02T23:02:03.843Z,16.00
2023-05-02T23:05:09.568Z,15.75
2023-05-02T23:08:12.897Z,13.25
2023-05-02T23:11:17.758Z,14.00
2023-05-02T23:14:23.004Z,18.50
2023-05-02T23:17:26.646Z,17.00
2023-05-02T23:20:30.116Z,17.50
2023-05-02T23:23:33.384Z,18.00
2023-05-02T23:26:38.105Z,15.75
2023-05-02T23:29:41.423Z,20.50
2023-05-02T23:32:45.166Z,17.50
2023-05-02T23:35:48.952Z,13.25
2023-05-02T23:38:52.488Z,23.50
2023-05-02T23:41:58.020Z,17.00
2023-05-02T23:45:01.458Z,15.00
2023-05-02T23:48:05.403Z,15.00
2023-05-02T23:51:09.442Z,16.50
2023-05-02T23:54:12.839Z,18.00
2023-05-02T23:57:17.922Z,18.00
